Time;durP1;ratioP1;P1;durP2;ratioP2;P2;SDS_P1;SDS_P2;PMS_P1;PMS_P2;Temp;Humidity;BMP_temperature;BMP_pressure;BME280_temperature;BME280_humidity;BME280_pressure;Samples;Min_cycle;Max_cycle;Signal;HPM_P1;HPM_P2
2021/03/25 00:00:17;;;;;;;2.30;1.67;;;22.30;31.90;;;;;;5012318;28;20392;-62
2021/03/25 00:02:43;;;;;;;2.75;1.60;;;22.40;32.00;;;;;;5012018;28;20944;-65
2021/03/25 00:05:11;;;;;;;2.50;1.70;;;22.40;32.00;;;;;;5012361;28;20446;-66
2021/03/25 00:07:37;;;;;;;2.40;1.40;;;22.40;32.00;;;;;;5011981;28;20393;-65
2021/03/25 00:10:07;;;;;;;3.30;1.52;;;22.40;32.00;;;;;;5012081;28;20404;-67
2021/03/25 00:12:33;;;;;;;2.38;1.50;;;22.40;31.90;;;;;;5012262;28;20738;-66
2021/03/25 00:14:58;;;;;;;2.83;1.50;;;22.40;31.80;;;;;;5011488;28;20389;-66
2021/03/25 00:17:24;;;;;;;3.17;1.42;;;22.40;31.80;;;;;;5012471;28;20389;-66
2021/03/25 00:19:49;;;;;;;2.80;1.50;;;22.40;31.80;;;;;;5012093;28;20877;-65
2021/03/25 00:22:15;;;;;;;2.53;1.50;;;22.40;31.70;;;;;;5011926;28;20385;-66
2021/03/25 00:24:41;;;;;;;2.78;1.60;;;22.40;31.70;;;;;;5011721;28;20467;-65
2021/03/25 00:27:07;;;;;;;2.43;1.60;;;22.40;31.70;;;;;;5011433;28;20389;-66
2021/03/25 00:29:33;;;;;;;2.93;1.40;;;22.40;31.60;;;;;;5011252;28;20412;-66
2021/03/25 00:31:59;;;;;;;2.42;1.63;;;22.30;31.60;;;;;;5011588;28;20888;-65
2021/03/25 00:34:24;;;;;;;2.42;1.40;;;22.40;31.60;;;;;;5012015;28;20927;-65
2021/03/25 00:36:50;;;;;;;2.30;1.60;;;22.30;31.50;;;;;;5011324;28;20393;-66
2021/03/25 00:39:16;;;;;;;2.20;1.40;;;22.30;31.50;;;;;;5012065;28;20401;-64
2021/03/25 00:41:41;;;;;;;2.03;1.40;;;22.40;31.50;;;;;;5012080;28;20865;-66
2021/03/25 00:44:09;;;;;;;2.00;1.50;;;22.30;31.40;;;;;;5011965;28;20416;-66
2021/03/25 00:46:35;;;;;;;2.40;1.30;;;22.30;31.40;;;;;;5010561;28;20393;-66
2021/03/25 00:49:01;;;;;;;2.03;1.33;;;22.30;31.40;;;;;;5011234;28;20754;-66
2021/03/25 00:51:28;;;;;;;2.40;1.60;;;22.30;31.30;;;;;;5011509;28;20396;-66
2021/03/25 00:53:54;;;;;;;2.08;1.40;;;22.40;31.40;;;;;;5011615;28;20460;-66
2021/03/25 00:56:20;;;;;;;2.42;1.60;;;22.30;31.30;;;;;;5011545;28;21097;-66
2021/03/25 00:58:46;;;;;;;2.33;1.50;;;22.30;31.20;;;;;;5011274;28;20777;-66
2021/03/25 01:01:11;;;;;;;2.92;1.63;;;22.30;31.20;;;;;;5011642;28;20388;-66
2021/03/25 01:03:37;;;;;;;2.47;1.67;;;22.40;31.20;;;;;;5011558;28;20768;-65
2021/03/25 01:06:03;;;;;;;2.88;1.73;;;22.30;31.20;;;;;;5011587;28;20460;-66
2021/03/25 01:08:29;;;;;;;2.85;1.50;;;22.30;31.10;;;;;;5011613;28;20381;-64
2021/03/25 01:11:05;;;;;;;2.30;1.60;;;22.30;31.10;;;;;;5010989;28;20407;-67
2021/03/25 01:13:56;;;;;;;1.90;1.40;;;22.30;31.10;;;;;;5011483;28;20527;-66
2021/03/25 01:16:40;;;;;;;2.00;1.40;;;22.30;31.10;;;;;;5011533;28;20389;-66
2021/03/25 01:19:11;;;;;;;2.00;1.50;;;22.30;31.00;;;;;;5011215;28;20434;-66
2021/03/25 01:21:37;;;;;;;1.88;1.50;;;22.30;31.00;;;;;;5011283;28;20384;-66
2021/03/25 01:24:04;;;;;;;2.38;1.67;;;22.30;31.00;;;;;;5011390;28;20408;-66
2021/03/25 01:26:29;;;;;;;2.38;1.70;;;22.30;31.00;;;;;;5011450;28;20385;-65
2021/03/25 01:28:55;;;;;;;2.10;1.42;;;22.30;31.00;;;;;;5010906;28;20853;-66
2021/03/25 01:31:22;;;;;;;2.73;1.60;;;22.30;31.00;;;;;;5011414;28;20476;-66
2021/03/25 01:33:48;;;;;;;2.20;1.60;;;22.30;30.90;;;;;;5010961;28;20420;-67
2021/03/25 01:36:14;;;;;;;1.98;1.52;;;22.30;30.90;;;;;;5011262;28;20392;-67
2021/03/25 01:38:39;;;;;;;2.33;1.60;;;22.30;30.80;;;;;;5010033;28;20432;-65
2021/03/25 01:41:05;;;;;;;2.10;1.50;;;22.20;30.80;;;;;;5010864;28;20480;-65
2021/03/25 01:43:36;;;;;;;2.10;1.50;;;22.20;30.80;;;;;;5010640;28;20410;-66
2021/03/25 01:46:30;;;;;;;1.92;1.40;;;22.20;30.80;;;;;;5011273;28;20409;-66
2021/03/25 01:49:01;;;;;;;2.20;1.30;;;22.20;30.80;;;;;;5010586;28;20889;-66
2021/03/25 01:51:52;;;;;;;2.45;1.40;;;22.20;30.70;;;;;;5013991;28;20447;-66
2021/03/25 01:54:41;;;;;;;1.95;1.40;;;22.20;30.70;;;;;;5014718;28;20389;-66
2021/03/25 01:57:31;;;;;;;1.90;1.38;;;22.20;30.70;;;;;;5013839;28;20389;-66
2021/03/25 02:00:19;;;;;;;2.17;1.38;;;22.20;30.70;;;;;;5014403;28;20393;-65
2021/03/25 02:03:00;;;;;;;1.80;1.25;;;22.20;30.70;;;;;;5014268;28;20388;-66
2021/03/25 02:05:29;;;;;;;2.13;1.25;;;22.20;30.70;;;;;;5014090;28;20500;-67
2021/03/25 02:08:19;;;;;;;1.80;1.20;;;22.20;30.60;;;;;;5014310;28;20454;-66
2021/03/25 02:11:16;;;;;;;2.00;1.20;;;22.20;30.70;;;;;;5014082;28;20908;-66
2021/03/25 02:14:01;;;;;;;1.98;1.33;;;22.20;30.60;;;;;;5014098;28;20389;-65
2021/03/25 02:16:33;;;;;;;1.70;1.25;;;22.20;30.60;;;;;;5014291;28;20396;-66
2021/03/25 02:19:01;;;;;;;1.75;1.25;;;22.20;30.60;;;;;;5013769;28;20511;-65
2021/03/25 02:21:48;;;;;;;1.80;1.10;;;22.10;30.50;;;;;;5013985;28;20480;-64
2021/03/25 02:24:30;;;;;;;1.75;1.20;;;22.20;30.60;;;;;;5014148;28;20474;-66
2021/03/25 02:27:08;;;;;;;1.52;0.93;;;22.10;30.50;;;;;;5012854;28;20761;-66
2021/03/25 02:29:52;;;;;;;1.67;1.10;;;22.10;30.50;;;;;;5003396;28;20496;-66
2021/03/25 02:32:33;;;;;;;1.95;1.30;;;22.10;30.50;;;;;;5013350;28;20408;-66
2021/03/25 02:35:08;;;;;;;1.63;1.20;;;22.10;30.50;;;;;;5013599;28;20468;-64
2021/03/25 02:37:35;;;;;;;1.80;1.10;;;22.20;30.50;;;;;;5013704;28;20400;-63
2021/03/25 02:40:10;;;;;;;1.70;1.10;;;22.10;30.40;;;;;;5013419;28;20436;-66
2021/03/25 02:43:01;;;;;;;1.67;1.10;;;22.10;30.40;;;;;;5013357;28;20397;-66
2021/03/25 02:45:32;;;;;;;1.40;1.10;;;22.10;30.40;;;;;;4994135;28;20465;-64
2021/03/25 02:48:07;;;;;;;1.38;1.00;;;22.10;30.40;;;;;;4994065;28;20887;-67
2021/03/25 02:50:42;;;;;;;1.48;1.00;;;22.10;30.40;;;;;;4993949;28;20398;-66
2021/03/25 02:53:26;;;;;;;1.55;1.10;;;22.10;30.40;;;;;;5009767;28;20480;-66
2021/03/25 02:55:56;;;;;;;1.23;1.00;;;22.10;30.40;;;;;;5013414;28;20389;-66
2021/03/25 02:58:25;;;;;;;1.40;0.80;;;22.10;30.40;;;;;;5012934;28;20389;-66
2021/03/25 03:00:59;;;;;;;1.50;0.90;;;22.10;30.40;;;;;;5012572;28;20896;-66
2021/03/25 03:03:31;;;;;;;1.40;1.00;;;22.10;30.40;;;;;;5012300;28;20467;-66
2021/03/25 03:05:59;;;;;;;1.30;0.90;;;22.10;30.30;;;;;;5013191;28;20440;-66
2021/03/25 03:08:28;;;;;;;1.13;0.85;;;22.10;30.40;;;;;;5013150;28;20389;-66
2021/03/25 03:10:59;;;;;;;1.67;0.95;;;22.10;30.30;;;;;;5027921;28;21313;-65
2021/03/25 03:13:29;;;;;;;1.50;1.10;;;22.10;30.30;;;;;;5013142;28;20885;-66
2021/03/25 03:16:01;;;;;;;1.30;0.90;;;22.10;30.30;;;;;;5012990;28;20397;-66
2021/03/25 03:18:36;;;;;;;1.33;0.95;;;22.00;30.20;;;;;;5013138;28;20455;-66
2021/03/25 03:21:15;;;;;;;1.50;0.90;;;22.00;30.20;;;;;;5012316;28;20489;-66
2021/03/25 03:23:41;;;;;;;1.30;0.97;;;22.00;30.30;;;;;;5028082;28;20885;-65
2021/03/25 03:26:16;;;;;;;1.30;0.85;;;22.00;30.20;;;;;;5012917;28;20405;-65
2021/03/25 03:28:49;;;;;;;1.23;0.90;;;22.00;30.20;;;;;;5012851;28;20389;-65
2021/03/25 03:31:23;;;;;;;1.00;0.80;;;22.00;30.20;;;;;;5012535;28;20463;-65
2021/03/25 03:33:55;;;;;;;1.30;1.02;;;22.00;30.20;;;;;;5012503;28;20817;-65
2021/03/25 03:36:23;;;;;;;1.10;0.73;;;22.00;30.20;;;;;;5012718;28;20915;-65
2021/03/25 03:38:57;;;;;;;1.50;0.90;;;22.00;30.20;;;;;;5012448;28;20399;-63
2021/03/25 03:41:36;;;;;;;1.52;0.80;;;22.00;30.20;;;;;;5012815;28;20385;-66
2021/03/25 03:44:08;;;;;;;1.45;0.80;;;22.00;30.10;;;;;;5012693;28;20448;-65
2021/03/25 03:46:36;;;;;;;1.17;0.77;;;22.00;30.20;;;;;;5012653;28;20387;-65
2021/03/25 03:49:12;;;;;;;2.80;0.90;;;22.00;30.20;;;;;;5011844;28;20395;-65
2021/03/25 03:51:54;;;;;;;1.20;0.80;;;22.00;30.20;;;;;;5011010;28;20543;-65
2021/03/25 03:54:20;;;;;;;1.20;0.80;;;22.00;30.20;;;;;;5027463;28;20770;-65
2021/03/25 03:57:03;;;;;;;1.20;0.80;;;21.90;30.10;;;;;;5012169;28;20870;-66
2021/03/25 03:59:43;;;;;;;1.48;0.80;;;22.00;30.10;;;;;;5012006;28;20405;-66
2021/03/25 04:02:37;;;;;;;1.40;0.83;;;22.00;30.10;;;;;;5011832;28;20401;-66
2021/03/25 04:05:10;;;;;;;1.63;0.90;;;22.00;30.10;;;;;;5011848;28;20419;-66
2021/03/25 04:07:43;;;;;;;1.42;1.00;;;21.90;30.00;;;;;;5011455;28;20443;-65
2021/03/25 04:10:17;;;;;;;2.00;0.90;;;21.90;30.20;;;;;;5011580;28;20393;-65
2021/03/25 04:12:48;;;;;;;1.25;0.80;;;21.80;30.40;;;;;;5010728;28;20389;-66
2021/03/25 04:15:17;;;;;;;1.30;0.90;;;21.90;31.00;;;;;;5011282;28;20401;-66
2021/03/25 04:17:47;;;;;;;1.40;0.80;;;21.90;31.00;;;;;;5011418;28;20405;-65
2021/03/25 04:20:21;;;;;;;1.63;0.98;;;22.00;30.50;;;;;;5003546;28;20530;-62
2021/03/25 04:22:52;;;;;;;3.40;0.80;;;21.90;30.70;;;;;;5010628;28;20463;-65
2021/03/25 04:25:17;;;;;;;1.95;0.73;;;22.00;31.00;;;;;;5010831;28;20432;-65
2021/03/25 04:27:52;;;;;;;3.13;0.90;;;22.00;31.40;;;;;;5007981;28;20384;-65
2021/03/25 04:30:32;;;;;;;4.93;1.30;;;22.00;31.80;;;;;;4998266;28;20887;-66
2021/03/25 04:32:57;;;;;;;3.40;1.00;;;22.00;31.90;;;;;;5006707;28;20467;-64
2021/03/25 04:35:23;;;;;;;5.00;1.10;;;22.10;32.70;;;;;;5009681;28;20392;-64
2021/03/25 04:37:51;;;;;;;3.58;1.15;;;22.10;33.40;;;;;;5009758;28;20484;-66
2021/03/25 04:40:31;;;;;;;3.65;0.90;;;22.10;33.20;;;;;;5011702;28;20439;-66
2021/03/25 04:42:58;;;;;;;7.45;1.00;;;22.00;32.40;;;;;;5010956;28;20432;-65
2021/03/25 04:45:35;;;;;;;3.47;0.90;;;22.10;32.70;;;;;;5011601;28;20904;-66
2021/03/25 04:48:04;;;;;;;3.78;0.90;;;22.10;32.70;;;;;;5011714;28;20392;-67
2021/03/25 04:50:39;;;;;;;2.35;0.90;;;22.10;32.50;;;;;;5011702;28;20420;-64
2021/03/25 04:53:34;;;;;;;3.43;0.80;;;22.10;32.20;;;;;;5009957;28;20397;-65
2021/03/25 04:56:02;;;;;;;2.90;0.88;;;22.10;32.30;;;;;;5011503;28;20893;-64
2021/03/25 04:58:38;;;;;;;2.63;0.93;;;22.10;31.70;;;;;;5011482;28;20920;-65
2021/03/25 05:01:07;;;;;;;3.85;0.82;;;22.10;31.30;;;;;;5011233;28;20809;-66
2021/03/25 05:03:34;;;;;;;3.13;0.80;;;22.00;31.70;;;;;;5011471;28;20405;-64
2021/03/25 05:06:00;;;;;;;3.83;1.10;;;22.00;31.30;;;;;;5026770;28;20419;-66
2021/03/25 05:08:30;;;;;;;2.97;1.00;;;22.00;31.00;;;;;;5011740;28;20785;-66
2021/03/25 05:10:55;;;;;;;1.92;0.73;;;22.00;31.60;;;;;;5011280;28;20447;-67
2021/03/25 05:13:55;;;;;;;2.90;0.82;;;22.00;31.60;;;;;;5011113;28;20781;-67
2021/03/25 05:16:38;;;;;;;4.95;1.00;;;21.90;31.70;;;;;;5006469;28;20420;-66
2021/03/25 05:19:20;;;;;;;3.83;0.98;;;22.00;31.20;;;;;;5010948;28;20488;-66
2021/03/25 05:21:48;;;;;;;3.75;1.00;;;22.00;31.10;;;;;;5011211;28;20391;-65
2021/03/25 05:24:30;;;;;;;4.20;1.15;;;21.90;31.00;;;;;;5011326;28;20452;-66
2021/03/25 05:27:11;;;;;;;3.15;0.85;;;22.00;30.90;;;;;;5014858;28;20860;-66
2021/03/25 05:29:39;;;;;;;1.80;0.80;;;21.90;30.80;;;;;;5014489;28;21051;-67
2021/03/25 05:32:06;;;;;;;2.45;0.80;;;21.90;30.70;;;;;;5012160;28;20410;-65
2021/03/25 05:34:33;;;;;;;2.60;0.88;;;21.90;30.70;;;;;;5011938;28;20516;-66
2021/03/25 05:36:59;;;;;;;3.80;0.80;;;21.90;30.60;;;;;;5014816;28;20389;-66
2021/03/25 05:39:26;;;;;;;1.80;0.80;;;22.00;30.70;;;;;;5014998;28;20483;-66
2021/03/25 05:42:14;;;;;;;2.55;0.80;;;22.00;30.60;;;;;;5014908;28;20439;-67
2021/03/25 05:45:17;;;;;;;2.20;1.08;;;21.90;30.50;;;;;;5014935;28;20527;-65
2021/03/25 05:48:00;;;;;;;2.90;0.88;;;21.90;30.50;;;;;;5014825;28;20412;-65
2021/03/25 05:50:49;;;;;;;2.30;0.90;;;21.90;30.50;;;;;;5014633;28;20389;-67
2021/03/25 05:53:36;;;;;;;2.25;0.93;;;21.90;30.50;;;;;;5012904;28;20467;-67
2021/03/25 05:56:29;;;;;;;3.20;1.10;;;21.90;30.50;;;;;;5014513;28;20480;-65
2021/03/25 05:59:00;;;;;;;1.83;0.70;;;21.80;30.40;;;;;;5014428;28;20385;-64
2021/03/25 06:01:37;;;;;;;2.25;0.90;;;21.80;30.40;;;;;;5014340;28;20385;-66
2021/03/25 06:04:07;;;;;;;2.95;1.02;;;21.80;30.40;;;;;;5014485;28;20413;-66
2021/03/25 06:06:36;;;;;;;2.90;0.85;;;21.90;30.30;;;;;;5011940;28;20403;-67
2021/03/25 06:09:04;;;;;;;4.32;1.20;;;22.00;30.50;;;;;;5014004;28;20405;-63
2021/03/25 06:11:49;;;;;;;5.35;1.10;;;22.00;30.60;;;;;;5014052;28;20900;-65
2021/03/25 06:14:33;;;;;;;3.50;1.30;;;21.90;30.50;;;;;;5011442;28;20952;-66
2021/03/25 06:17:15;;;;;;;4.00;0.90;;;21.80;30.60;;;;;;5013756;28;20848;-65
2021/03/25 06:19:41;;;;;;;3.20;1.00;;;21.80;30.70;;;;;;5014141;28;20400;-66
2021/03/25 06:22:13;;;;;;;2.50;1.00;;;21.80;30.70;;;;;;5014227;28;20468;-66
2021/03/25 06:24:52;;;;;;;2.78;1.00;;;21.80;30.70;;;;;;5013875;28;20421;-66
2021/03/25 06:27:49;;;;;;;2.72;0.90;;;21.80;30.60;;;;;;5013682;28;20392;-65
2021/03/25 06:30:39;;;;;;;4.07;1.00;;;21.80;30.60;;;;;;5014167;28;20870;-66
2021/03/25 06:33:20;;;;;;;2.10;0.80;;;21.80;30.50;;;;;;5012090;28;20413;-63
2021/03/25 06:35:50;;;;;;;1.83;1.00;;;21.80;30.50;;;;;;5012435;28;20749;-67
2021/03/25 06:38:31;;;;;;;2.50;0.90;;;21.80;30.50;;;;;;5012652;28;20388;-66
2021/03/25 06:41:19;;;;;;;3.20;1.33;;;21.90;30.40;;;;;;5012473;28;20400;-62
2021/03/25 06:44:05;;;;;;;3.67;1.30;;;21.90;30.30;;;;;;5013592;28;20419;-66
2021/03/25 06:46:36;;;;;;;3.55;1.10;;;21.90;30.30;;;;;;5013748;28;20389;-66
2021/03/25 06:49:10;;;;;;;2.67;1.08;;;21.90;30.30;;;;;;5013550;28;20393;-65
2021/03/25 06:51:36;;;;;;;2.97;1.20;;;22.00;30.30;;;;;;5013723;28;20388;-66
2021/03/25 06:54:15;;;;;;;3.00;1.15;;;22.00;30.20;;;;;;5013572;28;20397;-66
2021/03/25 06:56:44;;;;;;;2.20;1.05;;;22.00;30.10;;;;;;5013494;28;20456;-66
2021/03/25 06:59:26;;;;;;;2.20;1.10;;;22.00;30.10;;;;;;5012525;28;20393;-66
2021/03/25 07:01:55;;;;;;;3.30;1.20;;;22.10;30.00;;;;;;5013141;28;20392;-65
2021/03/25 07:04:28;;;;;;;3.45;1.10;;;22.10;30.00;;;;;;5013344;28;20512;-66
2021/03/25 07:07:04;;;;;;;2.97;1.10;;;22.10;30.00;;;;;;5013344;28;20427;-66
2021/03/25 07:09:35;;;;;;;2.33;1.10;;;22.10;30.50;;;;;;5013372;28;20381;-66
2021/03/25 07:12:04;;;;;;;3.53;1.00;;;22.10;30.00;;;;;;5012034;28;20483;-68
2021/03/25 07:14:37;;;;;;;1.73;0.95;;;22.20;30.00;;;;;;5013229;28;20416;-65
2021/03/25 07:17:04;;;;;;;1.98;1.00;;;22.20;29.90;;;;;;5011674;28;20389;-67
2021/03/25 07:19:34;;;;;;;2.95;0.82;;;22.20;29.90;;;;;;5012979;28;20955;-64
2021/03/25 07:22:15;;;;;;;2.92;0.77;;;22.20;29.80;;;;;;5011703;28;20433;-67
2021/03/25 07:24:41;;;;;;;1.95;0.88;;;22.30;29.80;;;;;;5012789;28;20779;-66
2021/03/25 07:27:11;;;;;;;2.60;0.87;;;22.30;29.80;;;;;;5012547;28;20396;-65
2021/03/25 07:29:41;;;;;;;2.15;0.90;;;22.30;29.70;;;;;;5012883;28;20480;-67
2021/03/25 07:32:07;;;;;;;2.17;0.90;;;22.30;29.70;;;;;;5012674;28;20389;-66
2021/03/25 07:34:42;;;;;;;1.65;0.85;;;22.30;29.70;;;;;;5012786;28;20769;-66
2021/03/25 07:37:10;;;;;;;1.58;0.85;;;22.30;29.70;;;;;;5012540;28;20413;-66
2021/03/25 07:39:48;;;;;;;2.70;1.00;;;22.30;29.70;;;;;;5012728;28;20404;-66
2021/03/25 07:42:29;;;;;;;2.00;0.80;;;22.40;29.60;;;;;;5011469;28;20919;-66
2021/03/25 07:45:31;;;;;;;2.15;0.90;;;22.40;29.50;;;;;;5012668;28;20452;-67
2021/03/25 07:48:17;;;;;;;1.55;0.70;;;22.40;29.50;;;;;;5012330;28;20377;-66
2021/03/25 07:50:44;;;;;;;1.73;0.85;;;22.40;29.50;;;;;;5012540;28;20448;-66
2021/03/25 07:53:27;;;;;;;1.98;0.90;;;22.40;29.50;;;;;;5010844;28;20401;-64
2021/03/25 07:56:16;;;;;;;1.20;0.70;;;22.50;29.50;;;;;;5012682;28;20488;-66
2021/03/25 07:58:47;;;;;;;1.42;0.80;;;22.50;29.40;;;;;;5012180;28;20385;-64
2021/03/25 08:01:22;;;;;;;1.50;0.80;;;22.50;29.40;;;;;;5012152;28;20412;-63
2021/03/25 08:03:58;;;;;;;2.33;0.80;;;22.50;29.40;;;;;;5012277;28;20452;-65
2021/03/25 08:06:31;;;;;;;1.40;0.90;;;22.50;29.40;;;;;;5012339;28;20422;-66
2021/03/25 08:09:09;;;;;;;2.13;0.80;;;22.50;29.40;;;;;;5012394;28;20881;-65
2021/03/25 08:11:56;;;;;;;1.33;0.73;;;22.60;29.30;;;;;;5012255;28;20448;-67
2021/03/25 08:14:24;;;;;;;1.52;0.80;;;22.60;29.30;;;;;;5012194;28;20821;-66
2021/03/25 08:16:53;;;;;;;1.70;0.80;;;22.60;29.30;;;;;;5012198;28;20387;-66
2021/03/25 08:19:40;;;;;;;1.63;0.88;;;22.60;29.30;;;;;;5011792;28;20397;-66
2021/03/25 08:22:23;;;;;;;1.50;0.80;;;22.60;29.30;;;;;;5012281;28;20849;-67
2021/03/25 08:25:20;;;;;;;1.70;0.75;;;22.70;29.30;;;;;;5012027;28;20927;-66
2021/03/25 08:28:13;;;;;;;1.83;0.73;;;22.70;29.20;;;;;;5011999;28;20412;-66
2021/03/25 08:31:18;;;;;;;1.30;0.77;;;22.70;29.30;;;;;;5011398;28;20397;-66
2021/03/25 08:34:22;;;;;;;1.50;0.80;;;22.70;29.20;;;;;;5011555;28;20409;-66
2021/03/25 08:37:11;;;;;;;1.27;0.70;;;22.70;29.20;;;;;;5005742;28;20408;-66
2021/03/25 08:39:45;;;;;;;1.70;0.83;;;22.80;29.20;;;;;;5011893;28;20485;-66
2021/03/25 08:42:28;;;;;;;1.17;0.70;;;22.80;29.20;;;;;;5011695;28;20479;-66
2021/03/25 08:45:09;;;;;;;1.67;0.70;;;22.80;29.10;;;;;;5011757;28;20502;-66
2021/03/25 08:47:56;;;;;;;1.50;0.80;;;22.80;29.10;;;;;;5011789;28;20428;-66
2021/03/25 08:50:36;;;;;;;1.42;0.80;;;22.80;29.00;;;;;;5011792;28;20381;-67
2021/03/25 08:53:25;;;;;;;2.08;1.00;;;22.80;29.00;;;;;;5011582;28;20393;-66
2021/03/25 08:55:54;;;;;;;1.58;0.90;;;22.90;29.00;;;;;;4991788;28;20439;-66
2021/03/25 08:58:32;;;;;;;1.67;0.90;;;22.90;29.00;;;;;;5010282;28;20397;-66
2021/03/25 09:01:03;;;;;;;1.30;0.82;;;22.90;29.00;;;;;;5014003;28;20888;-66
2021/03/25 09:03:38;;;;;;;1.20;0.60;;;22.90;29.00;;;;;;5015445;28;20428;-67
2021/03/25 09:06:06;;;;;;;1.38;0.70;;;23.00;28.90;;;;;;5014492;28;20440;-66
2021/03/25 09:08:37;;;;;;;1.77;0.70;;;23.00;28.90;;;;;;5015561;28;20446;-66
2021/03/25 09:11:11;;;;;;;1.98;0.80;;;23.00;28.80;;;;;;5015705;28;20873;-66
2021/03/25 09:13:50;;;;;;;1.65;0.73;;;23.00;28.80;;;;;;5015548;28;20396;-67
2021/03/25 09:16:24;;;;;;;1.25;0.68;;;23.00;28.80;;;;;;5015577;28;20393;-66
2021/03/25 09:18:50;;;;;;;1.65;0.90;;;23.10;28.80;;;;;;5014196;28;20442;-66
2021/03/25 09:21:22;;;;;;;1.05;0.70;;;23.10;28.70;;;;;;5015004;28;20892;-66
2021/03/25 09:24:00;;;;;;;1.60;0.80;;;23.10;28.80;;;;;;5014009;28;20408;-66
2021/03/25 09:26:25;;;;;;;1.58;0.88;;;23.10;28.70;;;;;;5015417;28;20392;-67
2021/03/25 09:29:04;;;;;;;1.43;0.77;;;23.10;28.70;;;;;;5014039;28;20400;-66
2021/03/25 09:31:38;;;;;;;1.25;0.60;;;23.10;28.70;;;;;;5015024;28;20408;-66
2021/03/25 09:34:10;;;;;;;1.38;0.70;;;23.10;28.70;;;;;;5013979;28;20412;-67
2021/03/25 09:36:36;;;;;;;1.17;0.50;;;23.10;28.70;;;;;;5015127;28;20476;-67
2021/03/25 09:39:02;;;;;;;1.35;0.70;;;23.10;28.70;;;;;;5015058;28;20475;-66
2021/03/25 09:41:29;;;;;;;1.67;0.70;;;23.20;28.70;;;;;;5014838;28;20385;-66
2021/03/25 09:44:18;;;;;;;1.17;0.60;;;23.10;28.60;;;;;;5014885;28;20400;-67
2021/03/25 09:46:46;;;;;;;1.35;0.80;;;23.10;28.60;;;;;;5014283;28;20409;-66
2021/03/25 09:49:18;;;;;;;1.15;0.70;;;23.10;28.60;;;;;;5014448;28;20873;-66
2021/03/25 09:51:45;;;;;;;1.00;0.70;;;23.10;28.60;;;;;;5014631;28;20480;-66
2021/03/25 09:54:37;;;;;;;1.30;0.73;;;23.10;28.60;;;;;;5014808;28;20393;-66
2021/03/25 09:57:34;;;;;;;1.33;0.70;;;23.10;28.60;;;;;;4999004;28;20500;-66
2021/03/25 10:00:33;;;;;;;1.30;0.70;;;23.10;28.50;;;;;;5014502;28;20439;-67
2021/03/25 10:03:05;;;;;;;1.17;0.60;;;23.10;28.50;;;;;;5014759;28;20384;-66
2021/03/25 10:05:31;;;;;;;1.00;0.60;;;23.20;28.50;;;;;;5014223;28;20423;-66
2021/03/25 10:08:21;;;;;;;1.55;0.70;;;23.10;28.50;;;;;;5014598;28;20484;-66
2021/03/25 10:10:54;;;;;;;1.00;0.60;;;23.10;28.50;;;;;;5006669;28;20409;-67
2021/03/25 10:13:31;;;;;;;1.10;0.57;;;23.10;28.50;;;;;;5014081;28;20395;-66
2021/03/25 10:16:05;;;;;;;1.20;0.67;;;23.10;28.50;;;;;;5014450;28;20400;-66
2021/03/25 10:18:31;;;;;;;1.10;0.65;;;23.10;28.40;;;;;;5014336;28;20376;-65
2021/03/25 10:21:07;;;;;;;0.90;0.60;;;23.20;28.40;;;;;;5014331;28;20660;-66
2021/03/25 10:23:51;;;;;;;1.00;0.68;;;23.10;28.40;;;;;;5014023;28;20389;-66
2021/03/25 10:26:42;;;;;;;1.00;0.70;;;23.10;28.40;;;;;;5014274;28;20403;-66
2021/03/25 10:29:11;;;;;;;1.08;0.70;;;23.10;28.40;;;;;;5014092;28;20957;-63
2021/03/25 10:31:47;;;;;;;1.20;0.70;;;23.10;28.40;;;;;;5013812;28;20393;-65
2021/03/25 10:34:19;;;;;;;1.30;0.75;;;23.10;28.40;;;;;;5014148;28;20389;-66
2021/03/25 10:37:00;;;;;;;1.00;0.60;;;23.10;28.40;;;;;;5014050;28;20397;-67
2021/03/25 10:39:33;;;;;;;0.90;0.60;;;23.10;28.40;;;;;;5013550;28;20476;-67
2021/03/25 10:42:14;;;;;;;0.98;0.60;;;23.20;28.40;;;;;;5013923;28;20857;-65
2021/03/25 10:44:40;;;;;;;1.23;0.70;;;23.20;28.40;;;;;;5013723;28;20887;-66
2021/03/25 10:47:16;;;;;;;1.05;0.60;;;23.20;28.40;;;;;;5013932;28;20385;-66
2021/03/25 10:49:46;;;;;;;1.30;0.70;;;23.20;28.40;;;;;;5013916;28;20424;-66
2021/03/25 10:52:37;;;;;;;1.05;0.60;;;23.20;28.40;;;;;;5013809;28;20389;-67
2021/03/25 10:55:15;;;;;;;1.17;0.55;;;23.20;28.30;;;;;;5008591;28;20444;-67
2021/03/25 10:57:49;;;;;;;1.10;0.70;;;23.20;28.30;;;;;;5013406;28;20460;-66
2021/03/25 11:00:25;;;;;;;0.97;0.60;;;23.20;28.40;;;;;;5013364;28;20396;-67
2021/03/25 11:02:51;;;;;;;1.20;0.70;;;23.20;28.30;;;;;;5012908;28;20400;-65
2021/03/25 11:05:22;;;;;;;1.50;0.60;;;23.20;28.30;;;;;;5012994;28;20776;-66
2021/03/25 11:07:54;;;;;;;1.30;0.50;;;23.20;28.30;;;;;;5013427;28;20467;-65
2021/03/25 11:10:26;;;;;;;1.50;0.73;;;23.20;28.30;;;;;;5013446;28;20389;-67
2021/03/25 11:13:18;;;;;;;1.00;0.60;;;23.10;28.20;;;;;;5013256;28;20443;-66
2021/03/25 11:15:55;;;;;;;0.82;0.50;;;23.20;28.30;;;;;;5005690;28;20774;-66
2021/03/25 11:18:27;;;;;;;1.20;0.70;;;23.20;28.30;;;;;;5013267;28;20415;-65
2021/03/25 11:20:53;;;;;;;1.03;0.60;;;23.20;28.30;;;;;;5011911;28;20900;-66
2021/03/25 11:23:22;;;;;;;1.10;0.70;;;23.20;28.30;;;;;;5011626;28;20399;-64
2021/03/25 11:25:57;;;;;;;0.93;0.60;;;23.20;28.30;;;;;;5012954;28;20426;-65
2021/03/25 11:28:23;;;;;;;1.52;0.70;;;23.20;28.30;;;;;;5013138;28;20389;-67
2021/03/25 11:30:53;;;;;;;1.02;0.60;;;23.20;28.20;;;;;;5012898;28;20753;-67
2021/03/25 11:33:27;;;;;;;1.20;0.70;;;23.20;28.20;;;;;;5012431;28;20488;-60
2021/03/25 11:35:53;;;;;;;1.17;0.60;;;23.10;28.20;;;;;;5012886;28;20839;-66
2021/03/25 11:38:25;;;;;;;1.65;0.82;;;23.20;28.30;;;;;;5011627;28;20427;-66
2021/03/25 11:40:53;;;;;;;1.30;0.63;;;23.20;28.30;;;;;;5012893;28;20396;-65
2021/03/25 11:43:23;;;;;;;1.10;0.70;;;23.20;28.20;;;;;;5012351;28;20421;-61
2021/03/25 11:45:51;;;;;;;1.17;0.70;;;23.20;28.20;;;;;;5012596;28;20759;-66
2021/03/25 11:48:32;;;;;;;1.27;0.80;;;23.20;28.20;;;;;;5012654;28;20480;-63
2021/03/25 11:51:18;;;;;;;1.10;0.60;;;23.20;28.70;;;;;;5012697;28;20400;-66
2021/03/25 11:53:55;;;;;;;1.10;0.80;;;23.20;28.20;;;;;;5010765;28;20381;-66
2021/03/25 11:56:36;;;;;;;1.58;0.70;;;23.20;28.20;;;;;;5012732;28;20472;-66
2021/03/25 11:59:13;;;;;;;1.10;0.60;;;23.20;28.20;;;;;;5011374;28;20398;-66
2021/03/25 12:01:40;;;;;;;1.23;0.73;;;23.20;28.20;;;;;;5011980;28;20408;-66
2021/03/25 12:04:25;;;;;;;1.20;0.68;;;23.30;28.20;;;;;;5012421;28;20427;-66
2021/03/25 12:07:13;;;;;;;1.15;0.70;;;23.30;28.20;;;;;;5012412;28;20396;-66
2021/03/25 12:09:58;;;;;;;1.33;0.75;;;23.30;28.20;;;;;;5012077;28;20404;-67
2021/03/25 12:12:24;;;;;;;1.40;0.70;;;23.30;28.10;;;;;;5012498;28;20381;-67
2021/03/25 12:14:50;;;;;;;1.30;0.60;;;23.30;28.20;;;;;;5012252;28;20415;-67
2021/03/25 12:17:15;;;;;;;1.10;0.70;;;23.30;28.10;;;;;;5011427;28;20389;-66
2021/03/25 12:19:41;;;;;;;1.08;0.60;;;23.30;28.20;;;;;;5011627;28;20427;-67
2021/03/25 12:22:10;;;;;;;1.25;0.70;;;23.30;28.10;;;;;;5010686;28;20400;-67
2021/03/25 12:24:36;;;;;;;1.08;0.70;;;23.30;28.10;;;;;;5011983;28;20452;-66
2021/03/25 12:27:02;;;;;;;1.17;0.60;;;23.30;28.10;;;;;;5012065;28;20428;-66
2021/03/25 12:29:28;;;;;;;1.05;0.70;;;23.30;28.10;;;;;;5011375;28;20397;-66
2021/03/25 12:31:55;;;;;;;1.20;0.70;;;23.30;28.10;;;;;;5011771;28;20388;-67
2021/03/25 12:34:23;;;;;;;1.13;0.77;;;23.40;28.10;;;;;;5011811;28;20889;-67
2021/03/25 12:36:49;;;;;;;1.10;0.77;;;23.40;28.10;;;;;;5011973;28;20451;-66
2021/03/25 12:39:14;;;;;;;1.33;0.70;;;23.40;28.10;;;;;;5010591;28;20397;-66
2021/03/25 12:41:44;;;;;;;1.30;0.80;;;23.40;28.10;;;;;;5011624;28;20908;-66
2021/03/25 12:44:12;;;;;;;0.90;0.70;;;23.40;28.00;;;;;;5011907;28;20480;-66
2021/03/25 12:46:39;;;;;;;1.20;0.80;;;23.40;28.10;;;;;;5011806;28;20401;-65
2021/03/25 12:49:05;;;;;;;1.30;0.70;;;23.40;28.10;;;;;;5011825;28;20381;-66
2021/03/25 12:51:31;;;;;;;1.10;0.77;;;23.40;28.10;;;;;;5011318;28;20408;-66
2021/03/25 12:53:56;;;;;;;1.17;0.70;;;23.50;28.10;;;;;;5011812;28;20393;-66
2021/03/25 12:56:34;;;;;;;1.27;0.70;;;23.40;28.00;;;;;;5011722;28;20439;-65
2021/03/25 12:59:08;;;;;;;1.20;0.70;;;23.50;28.10;;;;;;5011737;28;20392;-66
2021/03/25 13:01:34;;;;;;;1.48;0.88;;;23.50;28.10;;;;;;5009962;28;20897;-66
2021/03/25 13:04:01;;;;;;;1.35;0.80;;;23.50;28.10;;;;;;5011293;28;20417;-66
2021/03/25 13:06:27;;;;;;;1.20;0.80;;;23.50;28.10;;;;;;5011569;28;20405;-66
2021/03/25 13:08:53;;;;;;;1.53;0.90;;;23.50;28.10;;;;;;5011581;28;20797;-66
2021/03/25 13:11:26;;;;;;;2.22;0.93;;;23.50;28.10;;;;;;5011331;28;20796;-66
2021/03/25 13:13:53;;;;;;;3.35;1.50;;;25.10;31.40;;;;;;5011552;28;20385;-66
2021/03/25 13:16:20;;;;;;;4.43;2.03;;;25.90;28.90;;;;;;5011481;28;20777;-64
2021/03/25 13:18:46;;;;;;;5.97;2.33;;;26.30;28.30;;;;;;5010073;28;20424;-67
2021/03/25 13:21:13;;;;;;;5.72;2.40;;;26.40;27.70;;;;;;5011397;28;20401;-67
2021/03/25 13:23:39;;;;;;;4.60;2.55;;;26.50;27.30;;;;;;5010792;28;20456;-67